Time;durP1;ratioP1;P1;durP2;ratioP2;P2;SDS_P1;SDS_P2;PMS_P1;PMS_P2;Temp;Humidity;BMP_temperature;BMP_pressure;BME280_temperature;BME280_humidity;BME280_pressure;Samples;Min_cycle;Max_cycle;Signal;HPM_P1;HPM_P2
2022/07/08 00:00:12;;;;;;;3.60;2.70;;;13.40;99.90;;;;;;504283;235;28469;-69
2022/07/08 00:02:13;;;;;;;5.97;3.00;;;13.40;99.90;;;;;;504256;235;28130;-70
2022/07/08 00:04:15;;;;;;;4.90;3.20;;;13.40;99.90;;;;;;504250;235;28218;-69
2022/07/08 00:06:16;;;;;;;8.53;3.30;;;13.30;99.90;;;;;;504312;235;28617;-70
2022/07/08 00:08:19;;;;;;;5.00;2.50;;;13.40;99.90;;;;;;504315;235;29202;-69
2022/07/08 00:10:18;;;;;;;3.83;2.43;;;13.30;99.90;;;;;;504278;235;28962;-68
2022/07/08 00:12:20;;;;;;;4.50;2.50;;;13.30;99.90;;;;;;504288;235;28812;-68
2022/07/08 00:14:21;;;;;;;3.70;3.17;;;13.30;99.90;;;;;;504291;235;28397;-69
2022/07/08 00:16:22;;;;;;;5.03;3.00;;;13.30;99.90;;;;;;504271;235;28264;-71
2022/07/08 00:18:23;;;;;;;3.07;2.60;;;13.20;99.90;;;;;;504268;235;28159;-69
2022/07/08 00:20:25;;;;;;;3.30;2.30;;;13.20;99.90;;;;;;504273;235;28145;-69
2022/07/08 00:22:26;;;;;;;6.20;2.70;;;13.20;99.90;;;;;;504268;235;28431;-69
2022/07/08 00:24:27;;;;;;;4.80;2.50;;;13.20;99.90;;;;;;504248;236;28211;-69
2022/07/08 00:26:28;;;;;;;2.80;2.53;;;13.10;99.90;;;;;;504271;235;28280;-71
2022/07/08 00:28:30;;;;;;;4.10;2.47;;;13.20;99.90;;;;;;504248;235;28264;-69
2022/07/08 00:30:32;;;;;;;6.07;3.13;;;13.20;99.90;;;;;;504239;235;28143;-70
2022/07/08 00:32:32;;;;;;;3.47;2.80;;;13.10;99.90;;;;;;504260;235;28871;-69
2022/07/08 00:34:35;;;;;;;4.07;2.90;;;;;;;;;;504264;235;28881;-68
2022/07/08 00:36:36;;;;;;;3.27;2.70;;;13.00;99.90;;;;;;504294;235;26571;-69
2022/07/08 00:38:37;;;;;;;6.80;3.43;;;13.10;99.90;;;;;;504298;235;28153;-69
2022/07/08 00:40:38;;;;;;;5.10;2.90;;;13.10;99.90;;;;;;504267;235;28513;-72
2022/07/08 00:42:40;;;;;;;4.83;2.43;;;13.10;99.90;;;;;;504298;235;28248;-69
2022/07/08 00:44:41;;;;;;;5.80;2.60;;;13.10;99.90;;;;;;504285;235;28157;-70
2022/07/08 00:46:42;;;;;;;4.30;2.80;;;13.00;99.90;;;;;;504239;235;28697;-68
2022/07/08 00:48:43;;;;;;;5.70;3.30;;;13.00;99.90;;;;;;504288;235;28819;-68
2022/07/08 00:50:45;;;;;;;4.07;2.90;;;13.00;99.90;;;;;;504270;235;28657;-72
2022/07/08 00:52:46;;;;;;;7.17;3.10;;;13.00;99.90;;;;;;504284;235;28114;-69
2022/07/08 00:54:47;;;;;;;5.13;2.70;;;13.00;99.90;;;;;;504291;235;28144;-69
2022/07/08 00:56:48;;;;;;;6.63;2.93;;;13.00;99.90;;;;;;504242;235;28102;-69
2022/07/08 00:58:50;;;;;;;6.57;2.80;;;13.00;99.90;;;;;;504290;235;28167;-69
2022/07/08 01:00:51;;;;;;;9.37;3.60;;;13.00;99.90;;;;;;504256;235;28168;-72
2022/07/08 01:02:52;;;;;;;6.20;2.87;;;13.00;99.90;;;;;;504280;235;28255;-68
2022/07/08 01:04:53;;;;;;;5.03;2.90;;;12.90;99.90;;;;;;504277;235;28345;-69
2022/07/08 01:06:55;;;;;;;3.80;2.70;;;12.90;99.90;;;;;;504247;235;28211;-69
2022/07/08 01:08:56;;;;;;;9.40;3.13;;;12.90;99.90;;;;;;504274;235;28147;-69
2022/07/08 01:10:57;;;;;;;5.50;2.90;;;12.90;99.90;;;;;;504240;235;28648;-72
2022/07/08 01:12:58;;;;;;;3.43;2.80;;;12.90;99.90;;;;;;504281;235;28691;-69
2022/07/08 01:15:00;;;;;;;7.60;3.40;;;12.80;99.90;;;;;;504291;235;28667;-69
2022/07/08 01:17:01;;;;;;;5.33;2.70;;;12.80;99.90;;;;;;504231;235;28243;-68
2022/07/08 01:19:03;;;;;;;4.90;3.40;;;;;;;;;;504259;235;28113;-72
2022/07/08 01:21:05;;;;;;;4.80;3.13;;;12.80;99.90;;;;;;504277;234;26465;-68
2022/07/08 01:23:06;;;;;;;3.43;2.60;;;12.90;99.90;;;;;;504243;235;28612;-69
2022/07/08 01:25:07;;;;;;;5.63;2.97;;;12.80;99.90;;;;;;504293;235;28658;-68
2022/07/08 01:27:10;;;;;;;8.83;3.60;;;;;;;;;;504244;235;28577;-68
2022/07/08 01:29:12;;;;;;;5.60;3.17;;;12.80;99.90;;;;;;504296;234;26587;-70
2022/07/08 01:31:12;;;;;;;4.10;2.90;;;12.80;99.90;;;;;;504251;235;28248;-70
2022/07/08 01:33:13;;;;;;;2.63;2.43;;;12.70;99.90;;;;;;504266;235;28152;-69
2022/07/08 01:35:15;;;;;;;6.40;2.80;;;12.80;99.90;;;;;;504268;235;28101;-68
2022/07/08 01:37:16;;;;;;;5.27;2.50;;;12.70;99.90;;;;;;504241;235;29341;-70
2022/07/08 01:39:17;;;;;;;4.23;3.00;;;12.70;99.90;;;;;;504302;235;28682;-69
2022/07/08 01:41:18;;;;;;;4.20;2.83;;;12.60;99.90;;;;;;504278;235;28797;-69
2022/07/08 01:43:20;;;;;;;3.43;2.63;;;12.60;99.90;;;;;;504265;235;30610;-69
2022/07/08 01:45:21;;;;;;;3.10;2.77;;;12.60;99.90;;;;;;504266;235;28418;-72
2022/07/08 01:47:22;;;;;;;4.20;2.90;;;12.60;99.90;;;;;;504243;235;28416;-71
2022/07/08 01:49:23;;;;;;;2.93;2.63;;;12.60;99.90;;;;;;504284;235;28244;-69
2022/07/08 01:51:25;;;;;;;2.87;2.63;;;12.60;99.90;;;;;;504291;235;28279;-69
2022/07/08 01:53:26;;;;;;;4.97;3.10;;;12.70;99.90;;;;;;504261;235;28737;-68
2022/07/08 01:55:27;;;;;;;2.43;2.27;;;12.60;99.90;;;;;;504302;235;28252;-68
2022/07/08 01:57:28;;;;;;;3.20;2.47;;;12.70;99.90;;;;;;504305;235;28495;-73
2022/07/08 01:59:30;;;;;;;2.60;2.40;;;12.70;99.90;;;;;;504242;235;28725;-68
2022/07/08 02:01:31;;;;;;;2.80;2.60;;;12.60;99.90;;;;;;504289;235;29054;-69
2022/07/08 02:03:32;;;;;;;3.80;2.50;;;12.50;99.90;;;;;;504258;235;29327;-69
2022/07/08 02:05:37;;;;;;;2.27;2.17;;;;;;;;;;500730;237;28469;-70
2022/07/08 02:07:36;;;;;;;2.53;2.33;;;12.40;99.90;;;;;;505098;234;26369;-69
2022/07/08 02:09:37;;;;;;;3.00;2.60;;;12.40;99.90;;;;;;505188;235;28542;-69
2022/07/08 02:13:58;;;;;;;3.43;2.90;;;12.50;99.90;;;;;;505211;235;28143;-70
2022/07/08 02:15:59;;;;;;;2.80;2.57;;;12.40;99.90;;;;;;505227;235;28680;-71
2022/07/08 02:18:00;;;;;;;2.70;2.50;;;12.40;99.90;;;;;;505217;235;28406;-68
2022/07/08 02:20:01;;;;;;;3.93;2.73;;;12.40;99.90;;;;;;505177;235;28671;-69
2022/07/08 02:22:03;;;;;;;5.63;2.53;;;12.40;99.90;;;;;;505239;235;28258;-72
2022/07/08 02:24:04;;;;;;;6.40;2.97;;;12.30;99.90;;;;;;505214;235;28674;-69
2022/07/08 02:26:05;;;;;;;4.10;2.77;;;12.30;99.90;;;;;;505202;235;28551;-70
2022/07/08 02:28:06;;;;;;;4.40;2.70;;;12.30;99.90;;;;;;505185;235;28604;-69
2022/07/08 02:30:09;;;;;;;5.83;2.90;;;;;;;;;;505187;235;28183;-69
2022/07/08 02:32:10;;;;;;;3.80;2.57;;;12.30;99.90;;;;;;505254;234;26835;-69
2022/07/08 02:34:11;;;;;;;3.07;2.67;;;12.40;99.90;;;;;;505232;235;28665;-70
2022/07/08 02:36:13;;;;;;;8.17;2.90;;;12.40;99.90;;;;;;505256;235;28825;-70
2022/07/08 02:38:14;;;;;;;4.83;3.00;;;12.30;99.90;;;;;;505247;235;29239;-70
2022/07/08 02:40:15;;;;;;;3.47;2.70;;;12.20;99.90;;;;;;505282;235;28727;-74
2022/07/08 02:42:16;;;;;;;3.80;2.87;;;12.10;99.90;;;;;;505239;235;28288;-69
2022/07/08 02:44:18;;;;;;;5.47;3.17;;;12.10;99.90;;;;;;505227;235;28272;-70
2022/07/08 02:46:19;;;;;;;3.50;2.83;;;12.10;99.90;;;;;;505182;235;28309;-70
2022/07/08 02:48:20;;;;;;;3.80;3.20;;;12.10;99.90;;;;;;505228;235;28244;-70
2022/07/08 02:50:21;;;;;;;5.00;3.13;;;12.10;99.90;;;;;;505214;235;28159;-72
2022/07/08 02:52:23;;;;;;;3.60;2.90;;;12.00;99.90;;;;;;505225;235;28313;-69
2022/07/08 02:54:24;;;;;;;8.97;3.20;;;12.10;99.90;;;;;;505236;235;27939;-70
2022/07/08 02:56:25;;;;;;;3.00;2.80;;;12.10;99.90;;;;;;505188;235;28442;-69
2022/07/08 02:58:27;;;;;;;3.70;3.00;;;12.10;99.90;;;;;;505223;235;28226;-70
2022/07/08 03:00:28;;;;;;;3.27;3.00;;;12.00;99.90;;;;;;505190;235;28734;-71
2022/07/08 03:02:29;;;;;;;3.00;2.60;;;12.00;99.90;;;;;;505024;235;28409;-69
2022/07/08 03:04:30;;;;;;;2.57;2.47;;;12.00;99.90;;;;;;505245;235;28803;-69
2022/07/08 03:06:31;;;;;;;2.90;2.70;;;12.00;99.90;;;;;;505189;235;28472;-74
2022/07/08 03:08:33;;;;;;;2.70;2.47;;;11.90;99.90;;;;;;505222;235;28009;-69
2022/07/08 03:10:34;;;;;;;7.00;3.00;;;11.90;99.90;;;;;;505196;235;28256;-70
2022/07/08 03:12:35;;;;;;;3.30;2.77;;;11.80;99.90;;;;;;505238;235;28101;-69
2022/07/08 03:14:36;;;;;;;3.20;2.90;;;11.80;99.90;;;;;;505222;235;28245;-69
2022/07/08 03:16:38;;;;;;;3.30;3.00;;;11.80;99.90;;;;;;505228;235;28164;-72
2022/07/08 03:18:39;;;;;;;2.93;2.50;;;11.80;99.90;;;;;;505225;235;28213;-69
2022/07/08 03:20:40;;;;;;;3.90;2.30;;;11.70;99.90;;;;;;504937;235;28290;-69
2022/07/08 03:22:41;;;;;;;3.73;3.43;;;11.60;99.90;;;;;;505163;235;28196;-69
2022/07/08 03:24:43;;;;;;;2.90;2.60;;;11.50;99.90;;;;;;504839;235;28774;-71
2022/07/08 03:26:44;;;;;;;4.40;2.90;;;11.50;99.90;;;;;;504720;235;28401;-72
2022/07/08 03:28:45;;;;;;;3.20;2.90;;;11.50;99.90;;;;;;504968;235;28768;-69
2022/07/08 03:30:46;;;;;;;5.53;2.80;;;11.50;99.90;;;;;;505066;235;28591;-70
2022/07/08 03:32:48;;;;;;;2.63;2.43;;;11.40;99.90;;;;;;505193;235;27919;-69
2022/07/08 03:34:49;;;;;;;2.50;2.30;;;11.30;99.90;;;;;;505238;235;27893;-68
2022/07/08 03:36:50;;;;;;;2.40;2.30;;;11.30;99.90;;;;;;505232;235;28150;-71
2022/07/08 03:38:51;;;;;;;3.00;2.80;;;11.30;99.90;;;;;;505203;235;27859;-70
2022/07/08 03:43:12;;;;;;;7.60;3.20;;;11.30;99.90;;;;;;505191;235;28058;-74
2022/07/08 03:45:13;;;;;;;2.90;2.60;;;11.30;99.90;;;;;;505231;235;27971;-69
2022/07/08 03:47:15;;;;;;;3.67;2.40;;;11.30;99.90;;;;;;505250;235;28389;-69
2022/07/08 03:49:16;;;;;;;2.70;2.40;;;11.30;99.90;;;;;;505225;235;28154;-68
2022/07/08 03:51:18;;;;;;;3.87;2.40;;;11.20;99.90;;;;;;505263;235;28063;-69
2022/07/08 03:53:18;;;;;;;2.77;2.27;;;11.20;99.90;;;;;;505164;235;28126;-71
2022/07/08 03:55:24;;;;;;;3.40;2.53;;;11.20;99.90;;;;;;505273;235;28578;-69
2022/07/08 03:57:24;;;;;;;2.67;2.30;;;11.20;99.90;;;;;;505193;235;28335;-69
2022/07/08 03:59:25;;;;;;;3.00;2.40;;;11.20;99.90;;;;;;505218;235;28122;-69
2022/07/08 04:01:26;;;;;;;2.90;2.70;;;11.00;99.90;;;;;;505256;235;28140;-70
2022/07/08 04:03:27;;;;;;;3.13;2.77;;;11.10;99.90;;;;;;505241;235;28199;-69
2022/07/08 04:05:29;;;;;;;6.00;3.30;;;11.00;99.90;;;;;;505290;235;28692;-70
2022/07/08 04:07:30;;;;;;;2.63;2.43;;;11.10;99.90;;;;;;505281;235;28476;-69
2022/07/08 04:09:31;;;;;;;3.03;2.83;;;11.20;99.90;;;;;;505240;235;28669;-69
2022/07/08 04:11:32;;;;;;;2.60;2.50;;;11.20;99.90;;;;;;505148;235;28150;-69
2022/07/08 04:13:34;;;;;;;4.20;2.70;;;11.20;99.90;;;;;;505234;235;28030;-69
2022/07/08 04:15:35;;;;;;;3.20;2.90;;;11.20;99.90;;;;;;505265;235;28160;-72
2022/07/08 04:17:36;;;;;;;3.20;3.00;;;11.10;99.90;;;;;;505187;235;28210;-69
2022/07/08 04:19:39;;;;;;;4.30;3.27;;;;;;;;;;505196;235;28293;-72
2022/07/08 04:21:40;;;;;;;4.50;3.20;;;11.10;99.90;;;;;;505260;234;27501;-69
2022/07/08 04:23:41;;;;;;;4.17;3.10;;;11.10;99.90;;;;;;505269;235;28021;-71
2022/07/08 04:25:42;;;;;;;2.90;2.70;;;11.10;99.90;;;;;;505202;235;28150;-69
2022/07/08 04:27:44;;;;;;;3.13;2.83;;;11.10;99.90;;;;;;505224;235;28045;-69
2022/07/08 04:29:45;;;;;;;2.93;2.60;;;11.10;99.90;;;;;;505194;235;28235;-69
2022/07/08 04:31:46;;;;;;;3.10;2.90;;;11.20;99.90;;;;;;505260;235;28101;-70
2022/07/08 04:33:47;;;;;;;3.10;2.90;;;11.20;99.90;;;;;;505256;235;28270;-70
2022/07/08 04:35:49;;;;;;;3.83;3.40;;;11.20;99.90;;;;;;505227;235;28131;-69
2022/07/08 04:37:50;;;;;;;3.73;2.93;;;11.10;99.90;;;;;;505248;235;28371;-69
2022/07/08 04:39:51;;;;;;;4.60;3.00;;;11.20;99.90;;;;;;505207;235;28167;-69
2022/07/08 04:41:52;;;;;;;2.93;2.63;;;11.30;99.90;;;;;;505231;235;28413;-69
2022/07/08 04:43:54;;;;;;;3.37;3.07;;;11.30;99.90;;;;;;505251;235;28578;-71
2022/07/08 04:45:55;;;;;;;2.80;2.70;;;11.30;99.90;;;;;;505227;235;28582;-70
2022/07/08 04:47:56;;;;;;;3.00;2.90;;;11.20;99.90;;;;;;505258;235;28134;-69
2022/07/08 04:49:57;;;;;;;3.50;3.10;;;11.20;99.90;;;;;;505228;235;28021;-69
2022/07/08 04:51:59;;;;;;;3.60;3.30;;;11.30;99.90;;;;;;505236;235;28088;-69
2022/07/08 04:54:00;;;;;;;3.80;2.90;;;11.40;99.90;;;;;;505238;235;28200;-71
2022/07/08 04:56:01;;;;;;;5.00;3.50;;;11.40;99.90;;;;;;504994;235;28191;-72
2022/07/08 04:58:02;;;;;;;2.80;2.60;;;11.40;99.90;;;;;;505227;235;28261;-69
2022/07/08 05:00:04;;;;;;;2.70;2.60;;;11.40;99.90;;;;;;505240;235;28332;-72
2022/07/08 05:02:05;;;;;;;2.97;2.87;;;11.40;99.90;;;;;;505212;235;28231;-69
2022/07/08 05:04:06;;;;;;;4.43;4.03;;;11.50;99.90;;;;;;505238;235;28253;-71
2022/07/08 05:06:07;;;;;;;4.70;4.40;;;11.50;99.90;;;;;;505203;235;28585;-70
2022/07/08 05:08:09;;;;;;;4.20;3.90;;;11.50;99.90;;;;;;505250;235;28723;-69
2022/07/08 05:10:10;;;;;;;3.87;3.50;;;11.60;99.90;;;;;;505237;235;28502;-72
2022/07/08 05:12:11;;;;;;;3.30;3.20;;;11.60;99.90;;;;;;505206;235;28292;-69
2022/07/08 05:14:16;;;;;;;3.50;2.83;;;11.70;99.90;;;;;;505245;235;28244;-69
2022/07/08 05:16:14;;;;;;;3.20;2.80;;;11.70;99.90;;;;;;504917;235;28131;-69
2022/07/08 05:18:15;;;;;;;3.23;2.70;;;11.70;99.90;;;;;;505093;235;28374;-70
2022/07/08 05:20:16;;;;;;;4.17;3.70;;;11.80;99.90;;;;;;505221;235;28719;-69
2022/07/08 05:22:17;;;;;;;3.07;2.77;;;11.80;99.90;;;;;;505194;235;28336;-69
2022/07/08 05:24:19;;;;;;;3.47;3.17;;;11.90;99.90;;;;;;505220;235;28379;-69
2022/07/08 05:26:20;;;;;;;3.93;3.43;;;12.00;99.90;;;;;;505209;235;28235;-70
2022/07/08 05:28:21;;;;;;;4.13;3.03;;;12.00;99.90;;;;;;505251;235;28826;-70
2022/07/08 05:30:23;;;;;;;2.97;2.77;;;12.00;99.90;;;;;;505279;235;28877;-72
2022/07/08 05:32:24;;;;;;;2.80;2.60;;;12.10;99.90;;;;;;505240;235;28435;-69
2022/07/08 05:34:25;;;;;;;2.70;2.50;;;12.00;99.90;;;;;;505263;235;28761;-70
2022/07/08 05:36:26;;;;;;;3.00;2.80;;;12.10;99.90;;;;;;503580;235;27951;-69
2022/07/08 05:38:28;;;;;;;2.87;2.67;;;12.20;99.90;;;;;;489161;243;28403;-69
2022/07/08 05:40:29;;;;;;;3.33;2.80;;;12.20;99.90;;;;;;489270;242;28672;-73
2022/07/08 05:42:30;;;;;;;2.57;2.37;;;12.20;99.90;;;;;;489226;242;28335;-71
2022/07/08 05:44:31;;;;;;;3.07;2.87;;;12.30;99.90;;;;;;489242;242;27975;-70
2022/07/08 05:46:34;;;;;;;4.50;3.00;;;12.30;99.90;;;;;;489233;242;28373;-69
2022/07/08 05:48:34;;;;;;;6.10;3.07;;;12.40;99.90;;;;;;489208;242;28428;-69
2022/07/08 05:50:35;;;;;;;4.33;3.07;;;12.50;99.90;;;;;;489262;242;28840;-72
2022/07/08 05:52:36;;;;;;;4.17;3.37;;;12.50;99.90;;;;;;489298;242;28609;-69
2022/07/08 05:54:38;;;;;;;6.70;2.70;;;12.60;99.90;;;;;;489259;242;28754;-70
2022/07/08 05:56:40;;;;;;;3.00;2.77;;;;;;;;;;489284;242;28657;-69
2022/07/08 05:58:41;;;;;;;3.10;2.80;;;12.70;99.90;;;;;;489296;243;27658;-72
2022/07/08 06:00:43;;;;;;;7.73;3.00;;;12.80;99.90;;;;;;489256;242;28073;-70
2022/07/08 06:02:44;;;;;;;4.73;2.60;;;12.80;99.90;;;;;;489299;242;28257;-69
2022/07/08 06:04:45;;;;;;;5.27;3.13;;;12.80;99.90;;;;;;489228;242;28641;-70
2022/07/08 06:06:46;;;;;;;3.50;3.20;;;12.90;99.90;;;;;;489260;242;28781;-69
2022/07/08 06:08:48;;;;;;;3.13;2.83;;;13.00;99.90;;;;;;489303;241;28853;-72
2022/07/08 06:10:49;;;;;;;5.40;3.00;;;13.00;99.90;;;;;;489222;242;28128;-69
2022/07/08 06:12:50;;;;;;;4.30;3.23;;;13.00;99.90;;;;;;489251;242;28074;-71
2022/07/08 06:14:51;;;;;;;5.93;3.70;;;13.10;99.90;;;;;;489300;242;28297;-69
2022/07/08 06:16:53;;;;;;;6.13;3.80;;;13.10;99.90;;;;;;489220;242;28105;-70
2022/07/08 06:18:54;;;;;;;5.20;3.20;;;13.10;99.90;;;;;;489295;242;28292;-73
2022/07/08 06:20:55;;;;;;;5.60;3.10;;;13.10;99.90;;;;;;489286;242;28172;-70
2022/07/08 06:22:56;;;;;;;4.20;3.33;;;13.10;99.90;;;;;;489239;242;28189;-69
2022/07/08 06:24:58;;;;;;;4.40;3.53;;;13.10;99.90;;;;;;489288;242;28259;-69
2022/07/08 06:26:59;;;;;;;3.93;3.63;;;13.20;99.90;;;;;;489148;242;28100;-69
2022/07/08 06:29:00;;;;;;;3.60;3.30;;;13.40;99.90;;;;;;489254;242;28566;-72
2022/07/08 06:31:01;;;;;;;6.53;3.97;;;13.60;99.90;;;;;;489283;242;28568;-69
2022/07/08 06:33:04;;;;;;;5.47;3.63;;;13.60;99.90;;;;;;489224;242;28572;-69
2022/07/08 06:35:04;;;;;;;6.10;4.50;;;13.60;99.90;;;;;;489275;242;28166;-69
2022/07/08 06:37:05;;;;;;;4.30;3.90;;;13.70;99.90;;;;;;489276;242;28193;-70
2022/07/08 06:39:08;;;;;;;10.53;3.90;;;13.60;99.90;;;;;;489259;242;28340;-72
2022/07/08 06:41:08;;;;;;;5.10;3.57;;;13.60;99.90;;;;;;489269;242;28364;-69
2022/07/08 06:43:09;;;;;;;3.90;3.50;;;13.80;99.90;;;;;;489286;242;28419;-70
2022/07/08 06:45:10;;;;;;;7.83;4.10;;;14.00;99.90;;;;;;489257;242;28361;-69
2022/07/08 06:47:11;;;;;;;3.93;3.30;;;14.30;99.90;;;;;;489268;242;28803;-68
2022/07/08 06:49:13;;;;;;;3.23;2.93;;;14.10;99.90;;;;;;489235;242;28699;-73
2022/07/08 06:51:14;;;;;;;3.17;2.87;;;14.10;99.90;;;;;;489281;242;28640;-70
2022/07/08 06:53:15;;;;;;;4.13;3.30;;;14.40;99.90;;;;;;488999;242;29228;-70
2022/07/08 06:55:16;;;;;;;4.50;3.40;;;14.40;99.90;;;;;;489305;242;29983;-70
2022/07/08 06:57:18;;;;;;;4.53;3.60;;;14.50;99.90;;;;;;489287;242;29180;-70
2022/07/08 06:59:19;;;;;;;5.83;3.13;;;14.60;99.90;;;;;;489315;242;28775;-72
2022/07/08 07:01:20;;;;;;;5.83;4.10;;;14.40;99.90;;;;;;489303;242;28646;-70
2022/07/08 07:03:21;;;;;;;4.63;3.80;;;14.20;99.90;;;;;;489245;242;28662;-70
2022/07/08 07:05:23;;;;;;;4.43;3.10;;;14.20;99.90;;;;;;489263;242;28722;-69
2022/07/08 07:07:24;;;;;;;3.60;3.30;;;14.10;99.90;;;;;;489294;242;28717;-70
2022/07/08 07:09:25;;;;;;;4.23;3.93;;;14.10;99.90;;;;;;489309;242;28702;-72
2022/07/08 07:11:26;;;;;;;4.07;3.53;;;14.10;99.90;;;;;;489294;242;28651;-70
2022/07/08 07:13:28;;;;;;;4.00;3.17;;;14.10;99.90;;;;;;489327;242;28842;-69
2022/07/08 07:15:29;;;;;;;4.80;3.77;;;14.10;99.90;;;;;;489303;242;28677;-72
2022/07/08 07:17:30;;;;;;;3.60;3.30;;;14.20;99.90;;;;;;489321;242;29169;-70
2022/07/08 07:19:31;;;;;;;5.00;3.37;;;14.10;99.90;;;;;;489317;242;29151;-70
2022/07/08 07:21:33;;;;;;;6.80;3.60;;;14.00;99.90;;;;;;489312;242;29106;-70
2022/07/08 07:23:34;;;;;;;4.43;3.20;;;13.90;99.90;;;;;;489317;242;29262;-70
2022/07/08 07:25:35;;;;;;;5.00;3.17;;;13.90;99.90;;;;;;489309;242;28672;-70
2022/07/08 07:27:36;;;;;;;4.03;3.47;;;14.00;99.90;;;;;;489344;242;28637;-70
2022/07/08 07:29:38;;;;;;;4.23;3.40;;;14.00;99.90;;;;;;489354;242;28290;-71
2022/07/08 07:31:39;;;;;;;4.13;3.10;;;14.10;99.90;;;;;;489310;242;28378;-70
2022/07/08 07:33:40;;;;;;;3.30;3.00;;;14.10;99.90;;;;;;489324;242;28697;-70
2022/07/08 07:35:41;;;;;;;7.60;3.40;;;14.10;99.90;;;;;;487463;241;28554;-73
2022/07/08 07:37:43;;;;;;;5.53;3.53;;;13.90;99.90;;;;;;488343;241;28314;-70
2022/07/08 07:39:44;;;;;;;4.00;3.23;;;13.90;99.90;;;;;;492848;241;28546;-68
2022/07/08 07:41:45;;;;;;;6.63;3.40;;;13.90;99.90;;;;;;492481;240;28410;-70
2022/07/08 07:43:46;;;;;;;4.57;3.33;;;13.90;99.90;;;;;;492765;241;29352;-70
2022/07/08 07:45:48;;;;;;;4.33;3.17;;;14.10;99.90;;;;;;493169;241;29323;-72
2022/07/08 07:47:49;;;;;;;8.30;3.50;;;14.30;99.90;;;;;;493175;241;30025;-71
2022/07/08 07:49:50;;;;;;;4.93;3.50;;;14.30;99.90;;;;;;493215;241;28660;-71
2022/07/08 07:51:51;;;;;;;5.53;3.00;;;14.50;99.90;;;;;;493187;241;28737;-70
2022/07/08 07:53:53;;;;;;;4.83;2.60;;;14.50;99.90;;;;;;493160;241;28508;-70
2022/07/08 07:55:54;;;;;;;14.27;3.37;;;14.70;99.90;;;;;;493241;241;28756;-69
2022/07/08 07:57:55;;;;;;;4.33;2.20;;;14.90;99.90;;;;;;493222;241;28765;-69
2022/07/08 07:59:56;;;;;;;7.10;2.73;;;15.20;99.90;;;;;;493167;241;28740;-71
2022/07/08 08:01:58;;;;;;;2.20;2.00;;;15.50;99.90;;;;;;493219;241;28789;-70
2022/07/08 08:03:59;;;;;;;5.93;2.60;;;15.60;99.90;;;;;;493112;241;28841;-72
2022/07/08 08:06:00;;;;;;;3.33;2.60;;;15.50;99.90;;;;;;493196;241;29280;-71
2022/07/08 08:08:01;;;;;;;3.87;2.13;;;15.70;99.90;;;;;;493216;241;29292;-70
2022/07/08 08:10:03;;;;;;;4.17;2.60;;;15.90;99.90;;;;;;493180;241;29326;-70
2022/07/08 08:12:04;;;;;;;5.80;2.87;;;16.00;99.90;;;;;;493209;241;29148;-70
2022/07/08 08:14:05;;;;;;;3.77;2.20;;;16.10;99.90;;;;;;493213;241;28841;-70
2022/07/08 08:16:06;;;;;;;6.50;2.40;;;16.00;99.90;;;;;;493190;241;28859;-71
2022/07/08 08:18:08;;;;;;;4.40;2.67;;;15.80;99.90;;;;;;493225;241;28704;-70
2022/07/08 08:20:09;;;;;;;5.27;2.70;;;15.70;99.90;;;;;;493220;241;28848;-71
2022/07/08 08:22:10;;;;;;;4.67;2.70;;;15.60;99.90;;;;;;493154;241;28712;-69
2022/07/08 08:24:11;;;;;;;3.47;2.67;;;15.50;99.90;;;;;;493220;241;28744;-70
2022/07/08 08:26:13;;;;;;;3.97;2.50;;;15.30;99.90;;;;;;493150;241;29150;-70
2022/07/08 08:28:14;;;;;;;5.17;2.60;;;15.30;99.90;;;;;;489114;241;28515;-70
2022/07/08 08:30:15;;;;;;;4.10;2.63;;;15.30;99.90;;;;;;487301;244;28683;-70
2022/07/08 08:32:16;;;;;;;2.80;2.33;;;15.10;99.90;;;;;;487247;244;28996;-68
2022/07/08 08:34:18;;;;;;;2.57;2.37;;;15.20;99.90;;;;;;487304;244;29014;-70
2022/07/08 08:36:19;;;;;;;3.00;2.27;;;15.30;99.90;;;;;;487314;244;29136;-73
2022/07/08 08:38:20;;;;;;;2.70;2.50;;;15.40;99.90;;;;;;487284;244;28630;-71
2022/07/08 08:40:22;;;;;;;2.40;2.20;;;15.40;99.90;;;;;;487302;244;28708;-71
2022/07/08 08:42:23;;;;;;;3.27;2.40;;;15.30;99.90;;;;;;487226;244;28549;-69
2022/07/08 08:44:24;;;;;;;4.20;2.57;;;15.40;99.90;;;;;;487280;244;28629;-71
2022/07/08 08:46:25;;;;;;;6.17;2.27;;;15.30;99.90;;;;;;487325;244;28669;-72
2022/07/08 08:48:27;;;;;;;2.80;2.30;;;15.40;99.90;;;;;;487266;244;28543;-70
2022/07/08 08:52:47;;;;;;;7.20;2.50;;;15.70;99.90;;;;;;487306;244;29054;-71
2022/07/08 08:54:49;;;;;;;2.80;2.20;;;15.80;99.90;;;;;;487266;244;29002;-70
2022/07/08 08:56:50;;;;;;;2.87;2.00;;;15.80;99.90;;;;;;487316;244;28590;-70
2022/07/08 08:58:51;;;;;;;4.90;2.40;;;15.90;99.90;;;;;;487308;244;28571;-69
2022/07/08 09:00:52;;;;;;;2.67;2.40;;;16.00;99.90;;;;;;487263;244;28535;-70
2022/07/08 09:02:54;;;;;;;3.70;2.07;;;16.20;99.90;;;;;;487305;244;28632;-71
2022/07/08 09:04:55;;;;;;;1.97;1.87;;;16.40;99.90;;;;;;487280;244;28615;-70
2022/07/08 09:06:56;;;;;;;2.10;2.00;;;16.50;99.90;;;;;;487272;244;28683;-70
2022/07/08 09:08:59;;;;;;;2.23;2.03;;;16.50;99.90;;;;;;487242;244;29154;-73
2022/07/08 09:10:59;;;;;;;2.50;1.80;;;16.40;99.90;;;;;;487252;244;28583;-70
2022/07/08 09:13:00;;;;;;;7.50;2.20;;;16.20;99.90;;;;;;487311;244;28578;-71
2022/07/08 09:15:01;;;;;;;5.43;2.77;;;16.10;99.90;;;;;;487309;244;29088;-69
2022/07/08 09:17:02;;;;;;;4.13;2.50;;;15.90;99.90;;;;;;487239;244;29133;-70
2022/07/08 09:19:04;;;;;;;2.03;1.93;;;15.80;99.90;;;;;;487306;244;29066;-73
2022/07/08 09:21:06;;;;;;;3.90;2.00;;;15.90;99.90;;;;;;487266;244;28641;-70
2022/07/08 09:23:06;;;;;;;2.83;2.20;;;16.00;99.90;;;;;;487222;244;28584;-70
2022/07/08 09:25:07;;;;;;;2.47;1.90;;;15.90;99.90;;;;;;487320;244;28653;-70
2022/07/08 09:27:09;;;;;;;3.70;1.90;;;15.90;99.90;;;;;;487209;244;28578;-70
2022/07/08 09:29:10;;;;;;;2.90;1.50;;;15.90;99.90;;;;;;483802;244;35269;-73
2022/07/08 09:31:12;;;;;;;4.20;2.23;;;15.90;99.90;;;;;;487256;244;27682;-70
2022/07/08 09:33:12;;;;;;;2.77;1.77;;;16.10;99.90;;;;;;487259;244;28602;-70
2022/07/08 09:35:14;;;;;;;1.97;1.77;;;16.10;99.90;;;;;;487275;244;28653;-70
2022/07/08 09:37:18;;;;;;;2.10;1.90;;;16.20;99.90;;;;;;487274;244;28641;-70
2022/07/08 09:39:16;;;;;;;2.30;2.10;;;16.40;99.90;;;;;;487135;243;29060;-71
2022/07/08 09:41:20;;;;;;;3.77;2.80;;;16.50;99.90;;;;;;487300;244;28986;-70
2022/07/08 09:43:19;;;;;;;2.87;1.97;;;16.70;99.90;;;;;;487279;244;29149;-71
2022/07/08 09:45:20;;;;;;;3.00;2.10;;;16.50;99.90;;;;;;487256;244;29116;-70
2022/07/08 09:47:21;;;;;;;3.47;2.23;;;16.50;99.90;;;;;;487266;244;28579;-70
2022/07/08 09:49:22;;;;;;;5.67;2.37;;;16.50;99.90;;;;;;487260;244;28586;-71
2022/07/08 09:51:24;;;;;;;3.13;2.10;;;16.70;99.90;;;;;;487298;244;28545;-70
2022/07/08 09:53:25;;;;;;;4.40;2.40;;;16.70;99.90;;;;;;487297;244;28567;-70
2022/07/08 09:55:26;;;;;;;3.47;2.20;;;16.70;99.90;;;;;;487266;244;28667;-70
2022/07/08 09:57:28;;;;;;;1.87;1.77;;;16.60;99.90;;;;;;487307;244;28558;-71
2022/07/08 09:59:29;;;;;;;3.10;2.13;;;16.60;99.90;;;;;;487291;244;28576;-71
2022/07/08 10:01:30;;;;;;;3.03;2.07;;;16.90;99.90;;;;;;487235;244;28554;-70
2022/07/08 10:03:31;;;;;;;2.47;2.10;;;16.90;99.90;;;;;;487290;244;29062;-70
2022/07/08 10:05:32;;;;;;;2.37;2.17;;;16.80;99.90;;;;;;487306;244;29243;-70
2022/07/08 10:07:34;;;;;;;2.40;2.20;;;16.70;99.90;;;;;;487274;244;29008;-71
2022/07/08 10:09:35;;;;;;;2.57;2.03;;;16.80;99.90;;;;;;487317;244;29056;-73
2022/07/08 10:11:36;;;;;;;3.23;2.07;;;16.70;99.90;;;;;;487021;244;28708;-70
2022/07/08 10:13:37;;;;;;;3.57;2.13;;;16.70;99.90;;;;;;492173;241;28697;-70
2022/07/08 10:15:40;;;;;;;4.80;2.33;;;17.10;99.90;;;;;;493207;241;28828;-73
2022/07/08 10:17:40;;;;;;;4.17;2.30;;;17.40;99.90;;;;;;493126;241;28697;-70
2022/07/08 10:19:41;;;;;;;3.13;2.10;;;17.40;99.90;;;;;;493211;241;28739;-72
2022/07/08 10:21:42;;;;;;;3.47;2.10;;;17.30;99.90;;;;;;493186;241;28791;-70
2022/07/08 10:23:44;;;;;;;2.60;2.40;;;17.30;99.90;;;;;;493165;241;28748;-70
2022/07/08 10:25:45;;;;;;;3.50;2.43;;;17.40;99.90;;;;;;493226;241;28745;-73
2022/07/08 10:27:46;;;;;;;3.20;2.10;;;17.20;99.90;;;;;;493227;241;28804;-70
2022/07/08 10:29:47;;;;;;;4.50;2.30;;;17.30;99.90;;;;;;493199;241;29357;-71
2022/07/08 10:31:52;;;;;;;2.40;2.20;;;17.20;99.90;;;;;;493237;241;29266;-70
2022/07/08 10:33:50;;;;;;;2.77;2.47;;;17.20;99.90;;;;;;492866;241;29290;-70
2022/07/08 10:35:51;;;;;;;4.27;2.60;;;17.20;99.90;;;;;;493238;241;28741;-75
2022/07/08 10:37:52;;;;;;;2.23;2.03;;;17.30;99.90;;;;;;493231;241;28693;-70